sensor_id;sensor_type;location;lat;lon;timestamp;pressure;altitude;pressure_sealevel;temperature;humidity
44839;BME280;30576;42.098;24.876;2023-03-03T00:00:33;100090.97;;;7.37;82.78
44839;BME280;30576;42.098;24.876;2023-03-03T00:02:58;100087.44;;;7.33;83.45
44839;BME280;30576;42.098;24.876;2023-03-03T00:05:25;100080.44;;;7.29;83.55
44839;BME280;30576;42.098;24.876;2023-03-03T00:07:50;100084.81;;;7.37;83.31
44839;BME280;30576;42.098;24.876;2023-03-03T00:10:16;100080.47;;;7.34;82.91
44839;BME280;30576;42.098;24.876;2023-03-03T00:12:45;100075.19;;;7.31;83.36
44839;BME280;30576;42.098;24.876;2023-03-03T00:15:15;100070.69;;;7.05;83.83
44839;BME280;30576;42.098;24.876;2023-03-03T00:17:41;100069.75;;;6.92;84.84
44839;BME280;30576;42.098;24.876;2023-03-03T00:25:49;100057.66;;;7.27;83.45
44839;BME280;30576;42.098;24.876;2023-03-03T00:30:40;100049.84;;;7.39;83.29
44839;BME280;30576;42.098;24.876;2023-03-03T00:33:13;100038.50;;;7.43;83.07
44839;BME280;30576;42.098;24.876;2023-03-03T00:35:43;100040.22;;;7.40;82.71
44839;BME280;30576;42.098;24.876;2023-03-03T00:38:09;100037.56;;;7.37;82.89
44839;BME280;30576;42.098;24.876;2023-03-03T00:40:37;100027.13;;;7.50;82.73
44839;BME280;30576;42.098;24.876;2023-03-03T00:43:24;100027.13;;;7.47;82.91
44839;BME280;30576;42.098;24.876;2023-03-03T00:45:52;100025.38;;;7.48;82.35
44839;BME280;30576;42.098;24.876;2023-03-03T00:50:43;100013.13;;;7.51;82.29
44839;BME280;30576;42.098;24.876;2023-03-03T00:53:12;100014.00;;;7.53;82.21
44839;BME280;30576;42.098;24.876;2023-03-03T00:55:38;100010.53;;;7.64;82.39
44839;BME280;30576;42.098;24.876;2023-03-03T00:58:04;100009.66;;;7.63;81.64
44839;BME280;30576;42.098;24.876;2023-03-03T01:00:30;100008.78;;;7.61;81.76
44839;BME280;30576;42.098;24.876;2023-03-03T01:02:55;100010.53;;;7.68;81.65
44839;BME280;30576;42.098;24.876;2023-03-03T01:05:21;100005.31;;;7.71;81.60
44839;BME280;30576;42.098;24.876;2023-03-03T01:07:47;100000.06;;;7.78;81.04
44839;BME280;30576;42.098;24.876;2023-03-03T01:10:12;99995.66;;;7.67;81.00
44839;BME280;30576;42.098;24.876;2023-03-03T01:12:37;99997.41;;;7.58;80.80
44839;BME280;30576;42.098;24.876;2023-03-03T01:15:04;100003.50;;;7.53;80.93
44839;BME280;30576;42.098;24.876;2023-03-03T01:17:30;100008.78;;;7.64;80.73
44839;BME280;30576;42.098;24.876;2023-03-03T01:19:55;100001.81;;;7.68;81.43
44839;BME280;30576;42.098;24.876;2023-03-03T01:22:20;100010.53;;;7.67;81.49
44839;BME280;30576;42.098;24.876;2023-03-03T01:24:45;100004.44;;;7.65;81.52
44839;BME280;30576;42.098;24.876;2023-03-03T01:27:11;100005.28;;;7.61;81.50
44839;BME280;30576;42.098;24.876;2023-03-03T01:29:36;100007.03;;;7.63;80.96
44839;BME280;30576;42.098;24.876;2023-03-03T01:32:01;100000.91;;;7.61;81.32
44839;BME280;30576;42.098;24.876;2023-03-03T01:34:27;100007.03;;;7.57;81.26
44839;BME280;30576;42.098;24.876;2023-03-03T01:36:52;100004.41;;;7.63;80.95
44839;BME280;30576;42.098;24.876;2023-03-03T01:39:17;100001.78;;;7.65;81.32
44839;BME280;30576;42.098;24.876;2023-03-03T01:41:42;100000.91;;;7.61;81.12
44839;BME280;30576;42.098;24.876;2023-03-03T01:44:13;100000.03;;;7.56;81.05
44839;BME280;30576;42.098;24.876;2023-03-03T01:49:10;99995.66;;;7.66;81.39
44839;BME280;30576;42.098;24.876;2023-03-03T01:51:47;99996.56;;;7.66;81.53
44839;BME280;30576;42.098;24.876;2023-03-03T01:54:17;99993.91;;;7.62;80.65
44839;BME280;30576;42.098;24.876;2023-03-03T01:56:43;99988.66;;;7.57;81.22
44839;BME280;30576;42.098;24.876;2023-03-03T01:59:11;99989.50;;;7.48;81.02
44839;BME280;30576;42.098;24.876;2023-03-03T02:01:38;99988.63;;;7.48;81.24
44839;BME280;30576;42.098;24.876;2023-03-03T02:04:05;99994.75;;;7.48;81.53
44839;BME280;30576;42.098;24.876;2023-03-03T02:06:32;99991.28;;;7.63;81.34
44839;BME280;30576;42.098;24.876;2023-03-03T02:09:02;99982.53;;;7.70;80.92
44839;BME280;30576;42.098;24.876;2023-03-03T02:11:30;99990.41;;;7.70;80.46
44839;BME280;30576;42.098;24.876;2023-03-03T02:13:56;99986.03;;;7.66;80.69
44839;BME280;30576;42.098;24.876;2023-03-03T02:16:21;99986.91;;;7.65;81.33
44839;BME280;30576;42.098;24.876;2023-03-03T02:18:47;99985.16;;;7.63;81.53
44839;BME280;30576;42.098;24.876;2023-03-03T02:21:16;99979.03;;;7.65;80.88
44839;BME280;30576;42.098;24.876;2023-03-03T02:26:16;99984.28;;;7.59;81.14
44839;BME280;30576;42.098;24.876;2023-03-03T02:28:42;99978.16;;;7.66;80.79
44839;BME280;30576;42.098;24.876;2023-03-03T02:31:09;99980.78;;;7.63;80.05
44839;BME280;30576;42.098;24.876;2023-03-03T02:33:37;99984.28;;;7.65;80.17
44839;BME280;30576;42.098;24.876;2023-03-03T02:36:02;99980.78;;;7.59;80.08
44839;BME280;30576;42.098;24.876;2023-03-03T02:38:35;99979.03;;;7.59;80.23
44839;BME280;30576;42.098;24.876;2023-03-03T02:43:46;99975.50;;;7.43;81.52
44839;BME280;30576;42.098;24.876;2023-03-03T02:46:15;99971.06;;;7.25;81.66
44839;BME280;30576;42.098;24.876;2023-03-03T02:48:40;99972.84;;;7.31;81.92
44839;BME280;30576;42.098;24.876;2023-03-03T02:51:05;99979.81;;;7.26;82.24
44839;BME280;30576;42.098;24.876;2023-03-03T02:53:30;99973.69;;;7.27;82.07
44839;BME280;30576;42.098;24.876;2023-03-03T02:55:56;99974.56;;;7.29;82.23
44839;BME280;30576;42.098;24.876;2023-03-03T02:58:21;99978.97;;;7.34;81.97
44839;BME280;30576;42.098;24.876;2023-03-03T03:00:46;99975.34;;;6.95;82.84
44839;BME280;30576;42.098;24.876;2023-03-03T03:03:12;99978.78;;;6.84;84.79
44839;BME280;30576;42.098;24.876;2023-03-03T03:05:37;99977.06;;;6.92;84.88
44839;BME280;30576;42.098;24.876;2023-03-03T03:08:03;99976.25;;;7.04;84.54
44839;BME280;30576;42.098;24.876;2023-03-03T03:10:28;99977.09;;;7.01;84.57
44839;BME280;30576;42.098;24.876;2023-03-03T03:12:53;99974.44;;;6.93;85.05
44839;BME280;30576;42.098;24.876;2023-03-03T03:15:19;99971.81;;;6.92;84.95
44839;BME280;30576;42.098;24.876;2023-03-03T03:17:44;99965.69;;;6.87;85.74
44839;BME280;30576;42.098;24.876;2023-03-03T03:20:09;99966.56;;;6.89;85.37
44839;BME280;30576;42.098;24.876;2023-03-03T03:22:35;99964.66;;;6.57;86.67
44839;BME280;30576;42.098;24.876;2023-03-03T03:25:00;99959.44;;;6.61;87.11
44839;BME280;30576;42.098;24.876;2023-03-03T03:27:26;99965.50;;;6.53;88.10
44839;BME280;30576;42.098;24.876;2023-03-03T03:29:51;99959.47;;;6.63;87.81
44839;BME280;30576;42.098;24.876;2023-03-03T03:32:16;99964.75;;;6.71;87.68
44839;BME280;30576;42.098;24.876;2023-03-03T03:34:42;99969.00;;;6.56;87.94
44839;BME280;30576;42.098;24.876;2023-03-03T03:37:07;99964.72;;;6.69;87.93
44839;BME280;30576;42.098;24.876;2023-03-03T03:39:34;99963.88;;;6.78;86.95
44839;BME280;30576;42.098;24.876;2023-03-03T03:41:59;99965.66;;;6.79;86.84
44839;BME280;30576;42.098;24.876;2023-03-03T03:44:24;99966.50;;;6.75;86.92
44839;BME280;30576;42.098;24.876;2023-03-03T03:46:50;99968.31;;;6.91;86.00
44839;BME280;30576;42.098;24.876;2023-03-03T03:49:15;99969.16;;;6.84;86.21
44839;BME280;30576;42.098;24.876;2023-03-03T03:51:40;99965.66;;;6.79;86.21
44839;BME280;30576;42.098;24.876;2023-03-03T03:54:06;99965.59;;;6.71;86.54
44839;BME280;30576;42.098;24.876;2023-03-03T03:56:31;99972.63;;;6.74;86.97
44839;BME280;30576;42.098;24.876;2023-03-03T03:58:56;99963.88;;;6.75;86.74
44839;BME280;30576;42.098;24.876;2023-03-03T04:01:22;99963.91;;;6.81;87.33
44839;BME280;30576;42.098;24.876;2023-03-03T04:03:47;99963.91;;;6.82;86.31
44839;BME280;30576;42.098;24.876;2023-03-03T04:06:13;99966.50;;;6.79;86.37
44839;BME280;30576;42.098;24.876;2023-03-03T04:08:38;99965.59;;;6.68;87.67
44839;BME280;30576;42.098;24.876;2023-03-03T04:11:04;99962.97;;;6.65;87.18
44839;BME280;30576;42.098;24.876;2023-03-03T04:13:29;99966.50;;;6.79;87.37
44839;BME280;30576;42.098;24.876;2023-03-03T04:15:56;99964.81;;;6.83;86.63
44839;BME280;30576;42.098;24.876;2023-03-03T04:18:21;99958.69;;;6.89;86.86
44839;BME280;30576;42.098;24.876;2023-03-03T04:20:46;99965.66;;;6.84;86.55
44839;BME280;30576;42.098;24.876;2023-03-03T04:23:12;99957.78;;;6.79;86.68
44839;BME280;30576;42.098;24.876;2023-03-03T04:25:38;99958.66;;;6.84;86.96
44839;BME280;30576;42.098;24.876;2023-03-03T04:28:04;99949.94;;;6.85;86.54
44839;BME280;30576;42.098;24.876;2023-03-03T04:30:30;99947.34;;;6.88;86.45
44839;BME280;30576;42.098;24.876;2023-03-03T04:32:55;99955.09;;;6.63;87.39
44839;BME280;30576;42.098;24.876;2023-03-03T04:35:20;99946.34;;;6.58;87.92
44839;BME280;30576;42.098;24.876;2023-03-03T04:37:46;99950.59;;;6.44;88.65
44839;BME280;30576;42.098;24.876;2023-03-03T04:40:11;99946.22;;;6.38;89.60
44839;BME280;30576;42.098;24.876;2023-03-03T04:42:36;99950.59;;;6.45;89.46
44839;BME280;30576;42.098;24.876;2023-03-03T04:45:02;99954.16;;;6.51;88.94
44839;BME280;30576;42.098;24.876;2023-03-03T04:47:27;99960.34;;;6.65;89.02
44839;BME280;30576;42.098;24.876;2023-03-03T04:49:53;99958.53;;;6.59;89.04
44839;BME280;30576;42.098;24.876;2023-03-03T04:52:18;99963.03;;;6.82;88.21
44839;BME280;30576;42.098;24.876;2023-03-03T04:54:43;99954.28;;;6.75;87.46
44839;BME280;30576;42.098;24.876;2023-03-03T04:57:09;99956.00;;;6.73;87.76
44839;BME280;30576;42.098;24.876;2023-03-03T04:59:34;99951.59;;;6.60;88.28
44839;BME280;30576;42.098;24.876;2023-03-03T05:02:00;99954.22;;;6.61;88.70
44839;BME280;30576;42.098;24.876;2023-03-03T05:04:25;99961.19;;;6.62;88.99
44839;BME280;30576;42.098;24.876;2023-03-03T05:06:50;99961.19;;;6.64;88.59
44839;BME280;30576;42.098;24.876;2023-03-03T05:09:16;99956.91;;;6.75;88.93
44839;BME280;30576;42.098;24.876;2023-03-03T05:11:41;99961.25;;;6.78;87.88
44839;BME280;30576;42.098;24.876;2023-03-03T05:14:06;99956.00;;;6.75;87.96
44839;BME280;30576;42.098;24.876;2023-03-03T05:16:32;99963.84;;;6.73;87.93
44839;BME280;30576;42.098;24.876;2023-03-03T05:18:57;99966.47;;;6.73;87.80
44839;BME280;30576;42.098;24.876;2023-03-03T05:21:23;99968.22;;;6.68;88.46
44839;BME280;30576;42.098;24.876;2023-03-03T05:23:48;99962.97;;;6.70;88.41
44839;BME280;30576;42.098;24.876;2023-03-03T05:26:13;99958.53;;;6.59;88.73
44839;BME280;30576;42.098;24.876;2023-03-03T05:28:39;99966.41;;;6.59;88.31
44839;BME280;30576;42.098;24.876;2023-03-03T05:31:04;99962.13;;;6.71;88.43
44839;BME280;30576;42.098;24.876;2023-03-03T05:33:29;99960.28;;;6.57;88.90
44839;BME280;30576;42.098;24.876;2023-03-03T05:35:55;99968.22;;;6.71;88.32
44839;BME280;30576;42.098;24.876;2023-03-03T05:38:20;99969.19;;;6.90;87.62
44839;BME280;30576;42.098;24.876;2023-03-03T05:40:46;99971.75;;;6.76;87.77
44839;BME280;30576;42.098;24.876;2023-03-03T05:43:11;99971.72;;;6.73;88.36
44839;BME280;30576;42.098;24.876;2023-03-03T05:45:37;99974.41;;;6.84;87.70
44839;BME280;30576;42.098;24.876;2023-03-03T05:48:02;99971.88;;;7.04;86.87
44839;BME280;30576;42.098;24.876;2023-03-03T05:50:28;99969.22;;;7.01;86.60
44839;BME280;30576;42.098;24.876;2023-03-03T05:52:54;99977.09;;;6.99;86.42
44839;BME280;30576;42.098;24.876;2023-03-03T05:55:19;99977.06;;;6.92;86.37
44839;BME280;30576;42.098;24.876;2023-03-03T05:57:44;99973.59;;;7.01;85.72
44839;BME280;30576;42.098;24.876;2023-03-03T06:00:10;99976.22;;;7.01;85.42
44839;BME280;30576;42.098;24.876;2023-03-03T06:02:36;99970.13;;;7.05;85.53
44839;BME280;30576;42.098;24.876;2023-03-03T06:05:01;99977.09;;;6.99;84.94
44839;BME280;30576;42.098;24.876;2023-03-03T06:07:26;99971.06;;;7.27;84.43
44839;BME280;30576;42.098;24.876;2023-03-03T06:09:51;99982.41;;;7.23;84.51
44839;BME280;30576;42.098;24.876;2023-03-03T06:12:17;99980.72;;;7.31;83.26
44839;BME280;30576;42.098;24.876;2023-03-03T06:14:42;99983.31;;;7.20;83.39
44839;BME280;30576;42.098;24.876;2023-03-03T06:17:08;99981.56;;;7.25;84.47
44839;BME280;30576;42.098;24.876;2023-03-03T06:19:33;99982.44;;;7.30;83.28
44839;BME280;30576;42.098;24.876;2023-03-03T06:21:58;99989.50;;;7.48;82.51
44839;BME280;30576;42.098;24.876;2023-03-03T06:24:24;99988.63;;;7.49;82.08
44839;BME280;30576;42.098;24.876;2023-03-03T06:26:50;99986.88;;;7.51;81.42
44839;BME280;30576;42.098;24.876;2023-03-03T06:29:15;99987.75;;;7.58;80.80
44839;BME280;30576;42.098;24.876;2023-03-03T06:31:40;99987.75;;;7.58;79.73
44839;BME280;30576;42.098;24.876;2023-03-03T06:34:05;99983.41;;;7.60;78.73
44839;BME280;30576;42.098;24.876;2023-03-03T06:36:31;99995.63;;;7.47;78.57
44839;BME280;30576;42.098;24.876;2023-03-03T06:38:56;99990.38;;;7.52;77.97
44839;BME280;30576;42.098;24.876;2023-03-03T06:41:21;99993.88;;;7.49;78.02
44839;BME280;30576;42.098;24.876;2023-03-03T06:43:47;99998.22;;;7.46;77.52
44839;BME280;30576;42.098;24.876;2023-03-03T06:46:12;99993.91;;;7.54;78.85
44839;BME280;30576;42.098;24.876;2023-03-03T06:48:37;99992.16;;;7.70;77.57
44839;BME280;30576;42.098;24.876;2023-03-03T06:51:19;99996.53;;;7.60;77.81
44839;BME280;30576;42.098;24.876;2023-03-03T06:53:48;99994.81;;;7.81;77.41
44839;BME280;30576;42.098;24.876;2023-03-03T06:56:14;99991.31;;;7.85;77.75
44839;BME280;30576;42.098;24.876;2023-03-03T06:58:39;99995.69;;;7.91;76.92
44839;BME280;30576;42.098;24.876;2023-03-03T07:01:04;99993.94;;;7.91;76.36
44839;BME280;30576;42.098;24.876;2023-03-03T07:03:37;100004.47;;;7.97;76.88
44839;BME280;30576;42.098;24.876;2023-03-03T07:06:07;99993.06;;;8.01;76.60
44839;BME280;30576;42.098;24.876;2023-03-03T07:08:32;99996.59;;;8.05;75.81
44839;BME280;30576;42.098;24.876;2023-03-03T07:11:00;99994.81;;;8.19;75.41
44839;BME280;30576;42.098;24.876;2023-03-03T07:13:27;99996.59;;;8.19;75.06
44839;BME280;30576;42.098;24.876;2023-03-03T07:15:53;100000.94;;;8.17;74.76
44839;BME280;30576;42.098;24.876;2023-03-03T07:20:48;99998.31;;;8.20;74.56
44839;BME280;30576;42.098;24.876;2023-03-03T07:25:47;99986.94;;;8.33;73.79
44839;BME280;30576;42.098;24.876;2023-03-03T07:28:26;99993.06;;;8.23;73.50
44839;BME280;30576;42.098;24.876;2023-03-03T07:30:52;99989.56;;;8.33;73.82
44839;BME280;30576;42.098;24.876;2023-03-03T07:33:21;99992.19;;;8.49;73.34
44839;BME280;30576;42.098;24.876;2023-03-03T07:35:49;99983.44;;;8.53;72.19
44839;BME280;30576;42.098;24.876;2023-03-03T07:38:23;99989.53;;;8.58;71.65
44839;BME280;30576;42.098;24.876;2023-03-03T07:40:53;99991.31;;;8.50;71.79
44839;BME280;30576;42.098;24.876;2023-03-03T07:45:55;99987.78;;;8.54;71.07
44839;BME280;30576;42.098;24.876;2023-03-03T07:48:25;99992.19;;;8.21;73.36
44839;BME280;30576;42.098;24.876;2023-03-03T07:50:55;99991.31;;;8.31;73.34
44839;BME280;30576;42.098;24.876;2023-03-03T07:53:24;99995.69;;;8.49;72.80
44839;BME280;30576;42.098;24.876;2023-03-03T07:55:50;99986.03;;;8.60;73.76
44839;BME280;30576;42.098;24.876;2023-03-03T08:03:18;99978.94;;;8.87;72.41
44839;BME280;30576;42.098;24.876;2023-03-03T08:05:49;99982.41;;;8.97;70.72
44839;BME280;30576;42.098;24.876;2023-03-03T08:10:49;99967.31;;;9.39;70.17
44839;BME280;30576;42.098;24.876;2023-03-03T08:13:20;99958.53;;;9.37;69.85
44839;BME280;30576;42.098;24.876;2023-03-03T08:15:48;99968.22;;;9.32;69.52
44839;BME280;30576;42.098;24.876;2023-03-03T08:18:17;99962.97;;;9.29;68.70
44839;BME280;30576;42.098;24.876;2023-03-03T08:20:44;99959.44;;;9.31;68.86
44839;BME280;30576;42.098;24.876;2023-03-03T08:23:10;99960.13;;;9.61;68.83
44839;BME280;30576;42.098;24.876;2023-03-03T08:25:36;99952.88;;;9.90;68.40
44839;BME280;30576;42.098;24.876;2023-03-03T08:28:01;99951.06;;;10.01;68.56
44839;BME280;30576;42.098;24.876;2023-03-03T08:30:26;99951.03;;;10.02;68.41
44839;BME280;30576;42.098;24.876;2023-03-03T08:32:52;99946.66;;;10.00;67.55
44839;BME280;30576;42.098;24.876;2023-03-03T08:35:17;99951.03;;;10.06;67.67
44839;BME280;30576;42.098;24.876;2023-03-03T08:37:42;99943.06;;;10.10;68.39
44839;BME280;30576;42.098;24.876;2023-03-03T08:40:08;99939.31;;;10.37;67.39
44839;BME280;30576;42.098;24.876;2023-03-03T08:42:33;99935.00;;;10.29;66.62
44839;BME280;30576;42.098;24.876;2023-03-03T08:44:58;99937.59;;;10.36;66.67
44839;BME280;30576;42.098;24.876;2023-03-03T08:47:24;99929.00;;;10.10;66.56
44839;BME280;30576;42.098;24.876;2023-03-03T08:49:49;99932.69;;;9.92;66.41
44839;BME280;30576;42.098;24.876;2023-03-03T08:52:15;99927.50;;;9.82;66.19
44839;BME280;30576;42.098;24.876;2023-03-03T08:54:40;99926.47;;;9.99;66.74
44839;BME280;30576;42.098;24.876;2023-03-03T08:57:05;99932.66;;;9.95;67.16
44839;BME280;30576;42.098;24.876;2023-03-03T08:59:31;99934.44;;;9.91;67.22
44839;BME280;30576;42.098;24.876;2023-03-03T09:02:01;99934.38;;;9.99;68.44
44839;BME280;30576;42.098;24.876;2023-03-03T09:04:27;99932.63;;;10.01;68.65
44839;BME280;30576;42.098;24.876;2023-03-03T09:06:52;99936.19;;;9.94;68.12
44839;BME280;30576;42.098;24.876;2023-03-03T09:09:19;99922.75;;;10.21;67.51
44839;BME280;30576;42.098;24.876;2023-03-03T09:11:44;99930.66;;;10.20;66.76
44839;BME280;30576;42.098;24.876;2023-03-03T09:14:12;99932.41;;;10.24;66.22
44839;BME280;30576;42.098;24.876;2023-03-03T09:16:40;99934.13;;;10.24;66.73
44839;BME280;30576;42.098;24.876;2023-03-03T09:19:14;99933.50;;;10.00;66.78
44839;BME280;30576;42.098;24.876;2023-03-03T09:21:40;99931.81;;;9.90;67.49
44839;BME280;30576;42.098;24.876;2023-03-03T09:24:09;99931.88;;;9.82;68.39
44839;BME280;30576;42.098;24.876;2023-03-03T09:26:47;99924.06;;;9.71;69.85
44839;BME280;30576;42.098;24.876;2023-03-03T09:31:38;99923.19;;;9.72;70.83
44839;BME280;30576;42.098;24.876;2023-03-03T09:34:14;99915.31;;;9.66;70.33
44839;BME280;30576;42.098;24.876;2023-03-03T09:36:44;99907.03;;;8.87;74.26
44839;BME280;30576;42.098;24.876;2023-03-03T09:39:28;99908.84;;;8.71;75.55
44839;BME280;30576;42.098;24.876;2023-03-03T09:47:31;99912.41;;;8.65;77.72
44839;BME280;30576;42.098;24.876;2023-03-03T10:13:22;99906.06;;;9.03;75.47
44839;BME280;30576;42.098;24.876;2023-03-03T10:18:44;99904.22;;;9.22;74.80
44839;BME280;30576;42.098;24.876;2023-03-03T10:37:07;99892.88;;;9.08;73.48
44839;BME280;30576;42.098;24.876;2023-03-03T10:42:25;99878.81;;;9.15;72.75
44839;BME280;30576;42.098;24.876;2023-03-03T10:47:32;99879.56;;;9.32;73.96
44839;BME280;30576;42.098;24.876;2023-03-03T11:00:51;99854.41;;;10.01;70.94
44839;BME280;30576;42.098;24.876;2023-03-03T11:05:57;99851.41;;;10.38;70.43
44839;BME280;30576;42.098;24.876;2023-03-03T11:08:34;99849.81;;;10.20;71.43
44839;BME280;30576;42.098;24.876;2023-03-03T11:11:06;99848.81;;;10.34;68.66
44839;BME280;30576;42.098;24.876;2023-03-03T11:13:44;99843.81;;;10.06;66.85
44839;BME280;30576;42.098;24.876;2023-03-03T11:24:18;99838.34;;;10.25;65.58
44839;BME280;30576;42.098;24.876;2023-03-03T11:29:13;99832.69;;;10.59;64.93
44839;BME280;30576;42.098;24.876;2023-03-03T11:36:38;99825.25;;;10.88;64.74
44839;BME280;30576;42.098;24.876;2023-03-03T11:39:07;99824.56;;;10.75;64.25
44839;BME280;30576;42.098;24.876;2023-03-03T11:46:53;99814.53;;;10.32;65.22
44839;BME280;30576;42.098;24.876;2023-03-03T11:50:04;99810.31;;;10.16;63.86
44839;BME280;30576;42.098;24.876;2023-03-03T11:54:58;99805.78;;;10.33;64.38
44839;BME280;30576;42.098;24.876;2023-03-03T12:02:39;99800.84;;;10.01;66.21
44839;BME280;30576;42.098;24.876;2023-03-03T12:12:41;99791.16;;;10.74;64.38
44839;BME280;30576;42.098;24.876;2023-03-03T12:17:40;99792.09;;;10.69;61.68
44839;BME280;30576;42.098;24.876;2023-03-03T12:35:10;99783.22;;;10.76;63.83
44839;BME280;30576;42.098;24.876;2023-03-03T12:48:41;99787.97;;;10.51;65.40
44839;BME280;30576;42.098;24.876;2023-03-03T12:51:44;99782.03;;;10.32;64.32
44839;BME280;30576;42.098;24.876;2023-03-03T13:06:33;99775.56;;;9.83;68.21
44839;BME280;30576;42.098;24.876;2023-03-03T13:09:25;99768.41;;;9.91;69.06
44839;BME280;30576;42.098;24.876;2023-03-03T13:19:35;99773.09;;;9.64;69.15
44839;BME280;30576;42.098;24.876;2023-03-03T13:22:19;99771.22;;;9.76;68.53
44839;BME280;30576;42.098;24.876;2023-03-03T13:25:03;99776.75;;;9.48;69.57
44839;BME280;30576;42.098;24.876;2023-03-03T13:27:35;99780.28;;;9.48;69.67
44839;BME280;30576;42.098;24.876;2023-03-03T13:30:03;99780.31;;;9.45;69.30
44839;BME280;30576;42.098;24.876;2023-03-03T13:32:42;99773.00;;;9.75;68.97
44839;BME280;30576;42.098;24.876;2023-03-03T13:35:17;99769.53;;;9.72;69.56
44839;BME280;30576;42.098;24.876;2023-03-03T13:37:47;99768.72;;;9.63;70.27
44839;BME280;30576;42.098;24.876;2023-03-03T13:40:24;99760.34;;;10.07;70.13
44839;BME280;30576;42.098;24.876;2023-03-03T13:50:38;99756.03;;;10.02;65.48
44839;BME280;30576;42.098;24.876;2023-03-03T13:55:50;99769.34;;;9.89;67.28
44839;BME280;30576;42.098;24.876;2023-03-03T13:58:28;99759.53;;;10.01;67.15
44839;BME280;30576;42.098;24.876;2023-03-03T14:01:16;99761.31;;;10.01;65.91
44839;BME280;30576;42.098;24.876;2023-03-03T14:06:21;99753.50;;;9.92;66.41
44839;BME280;30576;42.098;24.876;2023-03-03T14:16:25;99763.81;;;10.12;66.75
44839;BME280;30576;42.098;24.876;2023-03-03T14:18:58;99753.09;;;10.27;64.84
44839;BME280;30576;42.098;24.876;2023-03-03T14:21:30;99757.41;;;10.33;65.91
44839;BME280;30576;42.098;24.876;2023-03-03T14:26:27;99756.13;;;10.63;65.31
44839;BME280;30576;42.098;24.876;2023-03-03T14:29:02;99754.50;;;10.54;64.88
44839;BME280;30576;42.098;24.876;2023-03-03T14:31:29;99747.91;;;10.85;64.88
44839;BME280;30576;42.098;24.876;2023-03-03T14:36:48;99746.13;;;11.38;62.70
44839;BME280;30576;42.098;24.876;2023-03-03T14:39:35;99733.91;;;11.34;62.16
44839;BME280;30576;42.098;24.876;2023-03-03T14:41:59;99736.72;;;11.23;63.76
44839;BME280;30576;42.098;24.876;2023-03-03T14:44:26;99737.31;;;11.39;63.57
44839;BME280;30576;42.098;24.876;2023-03-03T14:47:02;99729.16;;;11.53;63.24
44839;BME280;30576;42.098;24.876;2023-03-03T14:49:33;99727.38;;;11.54;63.02
44839;BME280;30576;42.098;24.876;2023-03-03T14:54:38;99727.69;;;11.37;62.53
44839;BME280;30576;42.098;24.876;2023-03-03T14:59:34;99733.94;;;11.33;61.65
44839;BME280;30576;42.098;24.876;2023-03-03T15:02:19;99729.84;;;11.13;61.67
44839;BME280;30576;42.098;24.876;2023-03-03T15:04:48;99737.22;;;10.94;62.32
44839;BME280;30576;42.098;24.876;2023-03-03T15:07:26;99737.44;;;10.79;61.88
44839;BME280;30576;42.098;24.876;2023-03-03T15:09:54;99731.34;;;10.73;62.35
44839;BME280;30576;42.098;24.876;2023-03-03T15:12:21;99733.94;;;10.77;63.12
44839;BME280;30576;42.098;24.876;2023-03-03T15:14:50;99739.09;;;10.84;62.98
44839;BME280;30576;42.098;24.876;2023-03-03T15:22:32;99736.59;;;10.75;63.38
44839;BME280;30576;42.098;24.876;2023-03-03T15:25:04;99742.81;;;10.72;63.03
44839;BME280;30576;42.098;24.876;2023-03-03T15:27:34;99749.06;;;10.65;62.58
44839;BME280;30576;42.098;24.876;2023-03-03T15:33:09;99743.00;;;10.59;63.13
44839;BME280;30576;42.098;24.876;2023-03-03T15:38:16;99742.94;;;10.63;62.77
44839;BME280;30576;42.098;24.876;2023-03-03T15:45:44;99750.22;;;10.47;63.55
44839;BME280;30576;42.098;24.876;2023-03-03T16:01:14;99755.94;;;10.09;65.32
44839;BME280;30576;42.098;24.876;2023-03-03T16:03:45;99756.75;;;10.14;65.18
44839;BME280;30576;42.098;24.876;2023-03-03T16:16:32;99780.59;;;10.04;66.63
44839;BME280;30576;42.098;24.876;2023-03-03T16:23:50;99794.53;;;10.14;68.27
44839;BME280;30576;42.098;24.876;2023-03-03T16:31:28;99801.38;;;10.31;68.35
44839;BME280;30576;42.098;24.876;2023-03-03T16:39:14;99808.09;;;10.56;67.47
44839;BME280;30576;42.098;24.876;2023-03-03T16:47:11;99790.59;;;10.51;66.93
44839;BME280;30576;42.098;24.876;2023-03-03T16:49:44;99796.78;;;10.47;67.72
44839;BME280;30576;42.098;24.876;2023-03-03T16:52:14;99800.31;;;10.49;67.55
44839;BME280;30576;42.098;24.876;2023-03-03T16:54:46;99806.38;;;10.55;68.23
44839;BME280;30576;42.098;24.876;2023-03-03T17:00:06;99811.59;;;10.59;67.96
44839;BME280;30576;42.098;24.876;2023-03-03T17:05:05;99814.25;;;10.57;67.76
44839;BME280;30576;42.098;24.876;2023-03-03T17:25:38;99818.25;;;10.13;70.03
44839;BME280;30576;42.098;24.876;2023-03-03T17:33:24;99829.53;;;10.29;68.77
44839;BME280;30576;42.098;24.876;2023-03-03T17:41:21;99851.00;;;9.92;69.15
44839;BME280;30576;42.098;24.876;2023-03-03T17:43:59;99856.50;;;9.68;70.30
44839;BME280;30576;42.098;24.876;2023-03-03T17:47:00;99861.81;;;9.62;70.09
44839;BME280;30576;42.098;24.876;2023-03-03T17:49:38;99869.88;;;9.41;70.93
44839;BME280;30576;42.098;24.876;2023-03-03T18:22:53;99862.56;;;8.14;76.02
44839;BME280;30576;42.098;24.876;2023-03-03T18:35:22;99877.47;;;7.95;75.40
44839;BME280;30576;42.098;24.876;2023-03-03T18:37:48;99882.72;;;7.89;75.24
44839;BME280;30576;42.098;24.876;2023-03-03T18:42:42;99860.88;;;7.71;75.50
44839;BME280;30576;42.098;24.876;2023-03-03T18:55:29;99886.28;;;7.56;75.98
44839;BME280;30576;42.098;24.876;2023-03-03T19:00:41;99895.00;;;7.53;75.38
44839;BME280;30576;42.098;24.876;2023-03-03T19:03:18;99891.50;;;7.40;76.34
44839;BME280;30576;42.098;24.876;2023-03-03T19:05:48;99897.63;;;7.44;76.45
44839;BME280;30576;42.098;24.876;2023-03-03T19:08:23;99889.75;;;7.44;76.44
44839;BME280;30576;42.098;24.876;2023-03-03T19:16:02;99900.22;;;7.25;77.27